sensor_id;sensor_type;location;lat;lon;timestamp;temperature;humidity
51837;DHT22;38941;53.254;6.600;2023-08-20T00:00:52;17.30;99.90
51837;DHT22;38941;53.254;6.600;2023-08-20T00:02:59;17.20;99.90
51837;DHT22;38941;53.254;6.600;2023-08-20T00:05:04;17.30;99.90
51837;DHT22;38941;53.254;6.600;2023-08-20T00:07:05;17.30;99.90
51837;DHT22;38941;53.254;6.600;2023-08-20T00:09:06;17.20;99.90
51837;DHT22;38941;53.254;6.600;2023-08-20T00:11:09;17.20;99.90
51837;DHT22;38941;53.254;6.600;2023-08-20T00:13:10;17.20;99.90
51837;DHT22;38941;53.254;6.600;2023-08-20T00:15:11;17.20;99.90
51837;DHT22;38941;53.254;6.600;2023-08-20T00:17:12;17.20;99.90
51837;DHT22;38941;53.254;6.600;2023-08-20T00:19:13;17.20;99.90
51837;DHT22;38941;53.254;6.600;2023-08-20T00:21:14;17.10;99.90
51837;DHT22;38941;53.254;6.600;2023-08-20T00:23:15;17.10;99.90
51837;DHT22;38941;53.254;6.600;2023-08-20T00:25:17;17.10;99.90
51837;DHT22;38941;53.254;6.600;2023-08-20T00:27:18;17.10;99.90
51837;DHT22;38941;53.254;6.600;2023-08-20T00:29:19;17.00;99.90
51837;DHT22;38941;53.254;6.600;2023-08-20T00:31:19;17.00;99.90
51837;DHT22;38941;53.254;6.600;2023-08-20T00:33:20;17.00;99.90
51837;DHT22;38941;53.254;6.600;2023-08-20T00:35:21;17.00;99.90
51837;DHT22;38941;53.254;6.600;2023-08-20T00:37:22;17.00;99.90
51837;DHT22;38941;53.254;6.600;2023-08-20T00:39:23;17.00;99.90
51837;DHT22;38941;53.254;6.600;2023-08-20T00:41:23;16.90;99.90
51837;DHT22;38941;53.254;6.600;2023-08-20T00:43:24;16.90;99.90
51837;DHT22;38941;53.254;6.600;2023-08-20T00:45:26;16.80;99.90
51837;DHT22;38941;53.254;6.600;2023-08-20T00:47:27;16.80;99.90
51837;DHT22;38941;53.254;6.600;2023-08-20T00:49:30;16.70;99.90
51837;DHT22;38941;53.254;6.600;2023-08-20T00:51:35;16.70;99.90
51837;DHT22;38941;53.254;6.600;2023-08-20T00:53:36;16.20;99.90
51837;DHT22;38941;53.254;6.600;2023-08-20T00:55:37;16.70;99.90
51837;DHT22;38941;53.254;6.600;2023-08-20T00:57:38;16.70;99.90
51837;DHT22;38941;53.254;6.600;2023-08-20T00:59:39;16.70;99.90
51837;DHT22;38941;53.254;6.600;2023-08-20T01:01:40;16.70;99.90
51837;DHT22;38941;53.254;6.600;2023-08-20T01:03:41;16.70;99.90
51837;DHT22;38941;53.254;6.600;2023-08-20T01:05:49;16.70;99.90
51837;DHT22;38941;53.254;6.600;2023-08-20T01:08:16;16.60;99.90
51837;DHT22;38941;53.254;6.600;2023-08-20T01:12:39;16.60;99.90
51837;DHT22;38941;53.254;6.600;2023-08-20T01:14:40;16.50;99.90
51837;DHT22;38941;53.254;6.600;2023-08-20T01:16:41;16.50;99.90
51837;DHT22;38941;53.254;6.600;2023-08-20T01:18:41;16.50;99.90
51837;DHT22;38941;53.254;6.600;2023-08-20T01:20:47;16.50;99.90
51837;DHT22;38941;53.254;6.600;2023-08-20T01:26:06;16.40;99.90
51837;DHT22;38941;53.254;6.600;2023-08-20T01:30:27;16.40;99.90
51837;DHT22;38941;53.254;6.600;2023-08-20T01:32:28;16.40;99.90
51837;DHT22;38941;53.254;6.600;2023-08-20T01:34:29;16.40;99.90
51837;DHT22;38941;53.254;6.600;2023-08-20T01:36:30;16.40;99.90
51837;DHT22;38941;53.254;6.600;2023-08-20T01:38:30;16.40;99.90
51837;DHT22;38941;53.254;6.600;2023-08-20T01:40:32;16.40;99.90
51837;DHT22;38941;53.254;6.600;2023-08-20T01:42:43;16.40;99.90
51837;DHT22;38941;53.254;6.600;2023-08-20T01:44:50;16.40;99.90
51837;DHT22;38941;53.254;6.600;2023-08-20T01:46:51;16.40;99.90
51837;DHT22;38941;53.254;6.600;2023-08-20T01:48:51;16.40;99.90
51837;DHT22;38941;53.254;6.600;2023-08-20T01:50:52;16.40;99.90
51837;DHT22;38941;53.254;6.600;2023-08-20T01:52:53;16.30;99.90
51837;DHT22;38941;53.254;6.600;2023-08-20T01:54:54;16.30;99.90
51837;DHT22;38941;53.254;6.600;2023-08-20T01:56:54;16.30;99.90
51837;DHT22;38941;53.254;6.600;2023-08-20T01:58:55;16.30;99.90
51837;DHT22;38941;53.254;6.600;2023-08-20T02:00:56;16.30;99.90
51837;DHT22;38941;53.254;6.600;2023-08-20T02:02:56;16.30;99.90
51837;DHT22;38941;53.254;6.600;2023-08-20T02:04:58;16.20;99.90
51837;DHT22;38941;53.254;6.600;2023-08-20T02:06:58;16.20;99.90
51837;DHT22;38941;53.254;6.600;2023-08-20T02:08:59;16.20;99.90
51837;DHT22;38941;53.254;6.600;2023-08-20T02:11:01;16.20;99.90
51837;DHT22;38941;53.254;6.600;2023-08-20T02:13:02;16.20;99.90
51837;DHT22;38941;53.254;6.600;2023-08-20T02:15:05;16.20;99.90
51837;DHT22;38941;53.254;6.600;2023-08-20T02:17:07;16.20;99.90
51837;DHT22;38941;53.254;6.600;2023-08-20T02:19:08;16.20;99.90
51837;DHT22;38941;53.254;6.600;2023-08-20T02:21:09;16.20;99.90
51837;DHT22;38941;53.254;6.600;2023-08-20T02:23:10;16.20;99.90
51837;DHT22;38941;53.254;6.600;2023-08-20T02:25:11;16.20;99.90
51837;DHT22;38941;53.254;6.600;2023-08-20T02:27:11;16.20;99.90
51837;DHT22;38941;53.254;6.600;2023-08-20T02:29:12;16.20;99.90
51837;DHT22;38941;53.254;6.600;2023-08-20T02:31:13;16.20;99.90
51837;DHT22;38941;53.254;6.600;2023-08-20T02:33:14;16.10;99.90
51837;DHT22;38941;53.254;6.600;2023-08-20T02:35:14;16.10;99.90
51837;DHT22;38941;53.254;6.600;2023-08-20T02:37:17;16.00;99.90
51837;DHT22;38941;53.254;6.600;2023-08-20T02:39:18;16.10;99.90
51837;DHT22;38941;53.254;6.600;2023-08-20T02:41:19;16.00;99.90
51837;DHT22;38941;53.254;6.600;2023-08-20T02:43:19;16.00;99.90
51837;DHT22;38941;53.254;6.600;2023-08-20T02:45:20;16.00;99.90
51837;DHT22;38941;53.254;6.600;2023-08-20T02:47:21;16.00;99.90
51837;DHT22;38941;53.254;6.600;2023-08-20T02:49:21;16.00;99.90
51837;DHT22;38941;53.254;6.600;2023-08-20T02:51:22;16.00;99.90
51837;DHT22;38941;53.254;6.600;2023-08-20T02:53:23;16.10;99.90
51837;DHT22;38941;53.254;6.600;2023-08-20T02:55:24;16.00;99.90
51837;DHT22;38941;53.254;6.600;2023-08-20T02:57:24;16.10;99.90
51837;DHT22;38941;53.254;6.600;2023-08-20T02:59:26;16.00;99.90
51837;DHT22;38941;53.254;6.600;2023-08-20T03:01:27;16.00;99.90
51837;DHT22;38941;53.254;6.600;2023-08-20T03:03:28;16.00;99.90
51837;DHT22;38941;53.254;6.600;2023-08-20T03:05:28;16.10;99.90
51837;DHT22;38941;53.254;6.600;2023-08-20T03:07:30;16.00;99.90
51837;DHT22;38941;53.254;6.600;2023-08-20T03:09:31;16.00;99.90
51837;DHT22;38941;53.254;6.600;2023-08-20T03:11:31;16.00;99.90
51837;DHT22;38941;53.254;6.600;2023-08-20T03:13:32;16.00;99.90
51837;DHT22;38941;53.254;6.600;2023-08-20T03:15:33;16.00;99.90
51837;DHT22;38941;53.254;6.600;2023-08-20T03:17:34;16.00;99.90
51837;DHT22;38941;53.254;6.600;2023-08-20T03:19:35;15.90;99.90
51837;DHT22;38941;53.254;6.600;2023-08-20T03:21:36;15.90;99.90
51837;DHT22;38941;53.254;6.600;2023-08-20T03:23:37;15.90;99.90
51837;DHT22;38941;53.254;6.600;2023-08-20T03:25:38;15.90;99.90
51837;DHT22;38941;53.254;6.600;2023-08-20T03:27:39;15.90;99.90
51837;DHT22;38941;53.254;6.600;2023-08-20T03:29:39;15.80;99.90
51837;DHT22;38941;53.254;6.600;2023-08-20T03:31:40;15.80;99.90
51837;DHT22;38941;53.254;6.600;2023-08-20T03:33:41;15.80;99.90
51837;DHT22;38941;53.254;6.600;2023-08-20T03:35:42;15.80;99.90
51837;DHT22;38941;53.254;6.600;2023-08-20T03:37:42;15.80;99.90
51837;DHT22;38941;53.254;6.600;2023-08-20T03:39:43;15.80;99.90
51837;DHT22;38941;53.254;6.600;2023-08-20T03:41:44;15.70;99.90
51837;DHT22;38941;53.254;6.600;2023-08-20T03:43:45;15.80;99.90
51837;DHT22;38941;53.254;6.600;2023-08-20T03:45:50;15.70;99.90
51837;DHT22;38941;53.254;6.600;2023-08-20T03:47:51;15.70;99.90
51837;DHT22;38941;53.254;6.600;2023-08-20T03:49:52;15.70;99.90
51837;DHT22;38941;53.254;6.600;2023-08-20T03:51:53;15.70;99.90
51837;DHT22;38941;53.254;6.600;2023-08-20T03:53:53;15.70;99.90
51837;DHT22;38941;53.254;6.600;2023-08-20T03:55:54;15.70;99.90
51837;DHT22;38941;53.254;6.600;2023-08-20T03:57:55;15.70;99.90
51837;DHT22;38941;53.254;6.600;2023-08-20T03:59:55;15.70;99.90
51837;DHT22;38941;53.254;6.600;2023-08-20T04:01:57;15.70;99.90
51837;DHT22;38941;53.254;6.600;2023-08-20T04:03:57;15.70;99.90
51837;DHT22;38941;53.254;6.600;2023-08-20T04:05:58;15.70;99.90
51837;DHT22;38941;53.254;6.600;2023-08-20T04:07:59;15.70;99.90
51837;DHT22;38941;53.254;6.600;2023-08-20T04:09:59;15.70;99.90
51837;DHT22;38941;53.254;6.600;2023-08-20T04:12:00;15.70;99.90
51837;DHT22;38941;53.254;6.600;2023-08-20T04:14:01;15.70;99.90
51837;DHT22;38941;53.254;6.600;2023-08-20T04:16:02;15.70;99.90
51837;DHT22;38941;53.254;6.600;2023-08-20T04:18:03;15.70;99.90
51837;DHT22;38941;53.254;6.600;2023-08-20T04:20:04;15.70;99.90
51837;DHT22;38941;53.254;6.600;2023-08-20T04:22:08;15.70;99.90
51837;DHT22;38941;53.254;6.600;2023-08-20T04:24:08;15.70;99.90
51837;DHT22;38941;53.254;6.600;2023-08-20T04:26:09;15.80;99.90
51837;DHT22;38941;53.254;6.600;2023-08-20T04:28:10;15.80;99.90
51837;DHT22;38941;53.254;6.600;2023-08-20T04:30:11;15.80;99.90
51837;DHT22;38941;53.254;6.600;2023-08-20T04:32:12;15.80;99.90
51837;DHT22;38941;53.254;6.600;2023-08-20T04:34:13;15.90;99.90
51837;DHT22;38941;53.254;6.600;2023-08-20T04:36:13;15.90;99.90
51837;DHT22;38941;53.254;6.600;2023-08-20T04:38:14;16.00;99.90
51837;DHT22;38941;53.254;6.600;2023-08-20T04:40:15;16.00;99.90
51837;DHT22;38941;53.254;6.600;2023-08-20T04:42:15;16.00;99.90
51837;DHT22;38941;53.254;6.600;2023-08-20T04:44:16;16.00;99.90
51837;DHT22;38941;53.254;6.600;2023-08-20T04:46:17;16.00;99.90
51837;DHT22;38941;53.254;6.600;2023-08-20T04:48:18;16.00;99.90
51837;DHT22;38941;53.254;6.600;2023-08-20T04:50:19;17.60;99.90
51837;DHT22;38941;53.254;6.600;2023-08-20T04:52:20;16.00;99.90
51837;DHT22;38941;53.254;6.600;2023-08-20T04:54:21;16.10;99.90
51837;DHT22;38941;53.254;6.600;2023-08-20T04:56:21;16.10;99.90
51837;DHT22;38941;53.254;6.600;2023-08-20T04:58:22;16.10;99.90
51837;DHT22;38941;53.254;6.600;2023-08-20T05:00:23;16.20;99.90
51837;DHT22;38941;53.254;6.600;2023-08-20T05:02:23;16.20;99.90
51837;DHT22;38941;53.254;6.600;2023-08-20T05:04:24;16.20;99.90
51837;DHT22;38941;53.254;6.600;2023-08-20T05:06:25;16.20;99.90
51837;DHT22;38941;53.254;6.600;2023-08-20T05:08:25;16.30;99.90
51837;DHT22;38941;53.254;6.600;2023-08-20T05:10:26;16.30;99.90
51837;DHT22;38941;53.254;6.600;2023-08-20T05:12:27;16.30;99.90
51837;DHT22;38941;53.254;6.600;2023-08-20T05:14:27;16.30;99.90
51837;DHT22;38941;53.254;6.600;2023-08-20T05:16:28;16.30;99.90
51837;DHT22;38941;53.254;6.600;2023-08-20T05:18:29;16.40;99.90
51837;DHT22;38941;53.254;6.600;2023-08-20T05:20:30;16.40;99.90
51837;DHT22;38941;53.254;6.600;2023-08-20T05:22:30;16.40;99.90
51837;DHT22;38941;53.254;6.600;2023-08-20T05:24:32;16.40;99.90
51837;DHT22;38941;53.254;6.600;2023-08-20T05:26:34;16.50;99.90
51837;DHT22;38941;53.254;6.600;2023-08-20T05:28:35;16.50;99.90
51837;DHT22;38941;53.254;6.600;2023-08-20T05:30:35;16.50;99.90
51837;DHT22;38941;53.254;6.600;2023-08-20T05:32:36;16.50;99.90
51837;DHT22;38941;53.254;6.600;2023-08-20T05:34:37;16.60;99.90
51837;DHT22;38941;53.254;6.600;2023-08-20T05:36:38;16.60;99.90
51837;DHT22;38941;53.254;6.600;2023-08-20T05:38:40;16.60;99.90
51837;DHT22;38941;53.254;6.600;2023-08-20T05:40:43;16.60;99.90
51837;DHT22;38941;53.254;6.600;2023-08-20T05:42:44;16.70;99.90
51837;DHT22;38941;53.254;6.600;2023-08-20T05:44:45;16.70;99.90
51837;DHT22;38941;53.254;6.600;2023-08-20T05:46:46;16.80;99.90
51837;DHT22;38941;53.254;6.600;2023-08-20T05:48:46;16.80;99.90
51837;DHT22;38941;53.254;6.600;2023-08-20T05:50:47;16.90;99.90
51837;DHT22;38941;53.254;6.600;2023-08-20T05:52:48;16.90;99.90
51837;DHT22;38941;53.254;6.600;2023-08-20T05:54:49;17.00;99.90
51837;DHT22;38941;53.254;6.600;2023-08-20T05:56:50;17.00;99.90
51837;DHT22;38941;53.254;6.600;2023-08-20T05:58:50;17.10;99.90
51837;DHT22;38941;53.254;6.600;2023-08-20T06:00:51;17.10;99.90
51837;DHT22;38941;53.254;6.600;2023-08-20T06:02:52;17.20;99.90
51837;DHT22;38941;53.254;6.600;2023-08-20T06:04:53;17.20;99.90
51837;DHT22;38941;53.254;6.600;2023-08-20T06:06:54;17.30;99.90
51837;DHT22;38941;53.254;6.600;2023-08-20T06:08:54;17.30;99.90
51837;DHT22;38941;53.254;6.600;2023-08-20T06:10:55;17.40;99.90
51837;DHT22;38941;53.254;6.600;2023-08-20T06:12:56;17.50;99.90
51837;DHT22;38941;53.254;6.600;2023-08-20T06:14:57;17.60;99.90
51837;DHT22;38941;53.254;6.600;2023-08-20T06:16:58;17.60;99.90
51837;DHT22;38941;53.254;6.600;2023-08-20T06:18:59;17.70;99.90
51837;DHT22;38941;53.254;6.600;2023-08-20T06:20:59;17.80;99.90
51837;DHT22;38941;53.254;6.600;2023-08-20T06:23:00;17.80;99.90
51837;DHT22;38941;53.254;6.600;2023-08-20T06:25:01;18.00;99.90
51837;DHT22;38941;53.254;6.600;2023-08-20T06:27:02;18.00;99.90
51837;DHT22;38941;53.254;6.600;2023-08-20T06:29:03;18.10;99.90
51837;DHT22;38941;53.254;6.600;2023-08-20T06:31:04;18.20;99.90
51837;DHT22;38941;53.254;6.600;2023-08-20T06:33:05;18.20;99.90
51837;DHT22;38941;53.254;6.600;2023-08-20T06:35:06;18.30;99.90
51837;DHT22;38941;53.254;6.600;2023-08-20T06:37:07;18.30;99.90
51837;DHT22;38941;53.254;6.600;2023-08-20T06:39:08;18.40;99.90
51837;DHT22;38941;53.254;6.600;2023-08-20T06:41:09;18.50;99.90
51837;DHT22;38941;53.254;6.600;2023-08-20T06:43:09;18.50;99.90
51837;DHT22;38941;53.254;6.600;2023-08-20T06:45:10;18.60;99.90
51837;DHT22;38941;53.254;6.600;2023-08-20T06:47:11;18.70;99.90
51837;DHT22;38941;53.254;6.600;2023-08-20T06:49:12;18.70;99.90
51837;DHT22;38941;53.254;6.600;2023-08-20T06:51:14;18.80;99.90
51837;DHT22;38941;53.254;6.600;2023-08-20T06:53:15;18.80;99.90
51837;DHT22;38941;53.254;6.600;2023-08-20T06:55:16;18.90;99.90
51837;DHT22;38941;53.254;6.600;2023-08-20T06:57:17;19.00;99.90
51837;DHT22;38941;53.254;6.600;2023-08-20T06:59:17;19.10;99.90
51837;DHT22;38941;53.254;6.600;2023-08-20T07:01:20;19.20;99.90
51837;DHT22;38941;53.254;6.600;2023-08-20T07:03:20;19.20;99.90
51837;DHT22;38941;53.254;6.600;2023-08-20T07:05:22;19.30;99.90
51837;DHT22;38941;53.254;6.600;2023-08-20T07:07:22;19.30;99.90
51837;DHT22;38941;53.254;6.600;2023-08-20T07:09:23;19.40;99.90
51837;DHT22;38941;53.254;6.600;2023-08-20T07:11:24;19.50;99.90
51837;DHT22;38941;53.254;6.600;2023-08-20T07:13:25;19.60;99.90
51837;DHT22;38941;53.254;6.600;2023-08-20T07:15:25;19.70;99.90
51837;DHT22;38941;53.254;6.600;2023-08-20T07:17:26;19.80;99.90
51837;DHT22;38941;53.254;6.600;2023-08-20T07:19:27;19.90;99.90
51837;DHT22;38941;53.254;6.600;2023-08-20T07:21:28;20.00;99.90
51837;DHT22;38941;53.254;6.600;2023-08-20T07:23:28;20.10;99.90
51837;DHT22;38941;53.254;6.600;2023-08-20T07:25:29;20.30;99.90
51837;DHT22;38941;53.254;6.600;2023-08-20T07:27:30;20.30;99.90
51837;DHT22;38941;53.254;6.600;2023-08-20T07:29:31;20.30;99.90
51837;DHT22;38941;53.254;6.600;2023-08-20T07:31:33;20.30;99.90
51837;DHT22;38941;53.254;6.600;2023-08-20T07:33:33;20.40;99.90
51837;DHT22;38941;53.254;6.600;2023-08-20T07:35:34;20.40;99.90
51837;DHT22;38941;53.254;6.600;2023-08-20T07:37:36;20.60;99.90
51837;DHT22;38941;53.254;6.600;2023-08-20T07:39:37;20.70;99.90
51837;DHT22;38941;53.254;6.600;2023-08-20T07:41:37;20.80;99.90
51837;DHT22;38941;53.254;6.600;2023-08-20T07:43:39;20.90;99.90
51837;DHT22;38941;53.254;6.600;2023-08-20T07:45:40;20.90;99.90
51837;DHT22;38941;53.254;6.600;2023-08-20T07:47:41;21.00;99.90
51837;DHT22;38941;53.254;6.600;2023-08-20T07:49:41;21.00;99.90
51837;DHT22;38941;53.254;6.600;2023-08-20T07:51:42;21.10;99.90
51837;DHT22;38941;53.254;6.600;2023-08-20T07:53:43;21.10;99.90
51837;DHT22;38941;53.254;6.600;2023-08-20T07:55:44;21.20;99.90
51837;DHT22;38941;53.254;6.600;2023-08-20T07:57:45;21.30;99.90
51837;DHT22;38941;53.254;6.600;2023-08-20T07:59:45;21.30;99.90
51837;DHT22;38941;53.254;6.600;2023-08-20T08:01:46;21.50;99.90
51837;DHT22;38941;53.254;6.600;2023-08-20T08:03:47;21.70;99.90
51837;DHT22;38941;53.254;6.600;2023-08-20T08:05:48;21.70;99.90
51837;DHT22;38941;53.254;6.600;2023-08-20T08:07:49;21.80;99.90
51837;DHT22;38941;53.254;6.600;2023-08-20T08:09:50;21.90;99.90
51837;DHT22;38941;53.254;6.600;2023-08-20T08:11:51;22.70;99.90
51837;DHT22;38941;53.254;6.600;2023-08-20T08:13:52;22.20;99.90
51837;DHT22;38941;53.254;6.600;2023-08-20T08:15:53;22.30;99.90
51837;DHT22;38941;53.254;6.600;2023-08-20T08:17:53;22.50;99.90
51837;DHT22;38941;53.254;6.600;2023-08-20T08:19:54;22.50;99.90
51837;DHT22;38941;53.254;6.600;2023-08-20T08:21:56;22.50;99.90
51837;DHT22;38941;53.254;6.600;2023-08-20T08:23:57;22.70;99.90
51837;DHT22;38941;53.254;6.600;2023-08-20T08:25:58;22.80;99.90
51837;DHT22;38941;53.254;6.600;2023-08-20T08:27:58;23.00;99.90
51837;DHT22;38941;53.254;6.600;2023-08-20T08:29:59;23.20;99.90
51837;DHT22;38941;53.254;6.600;2023-08-20T08:32:00;23.40;99.90
51837;DHT22;38941;53.254;6.600;2023-08-20T08:34:02;23.60;99.90
51837;DHT22;38941;53.254;6.600;2023-08-20T08:36:03;23.30;99.90
51837;DHT22;38941;53.254;6.600;2023-08-20T08:38:04;23.70;99.90
51837;DHT22;38941;53.254;6.600;2023-08-20T08:40:06;23.60;99.90
51837;DHT22;38941;53.254;6.600;2023-08-20T08:42:10;23.50;99.90
51837;DHT22;38941;53.254;6.600;2023-08-20T08:44:12;23.50;99.90
51837;DHT22;38941;53.254;6.600;2023-08-20T08:46:13;23.50;99.90
51837;DHT22;38941;53.254;6.600;2023-08-20T08:48:15;23.70;99.90
51837;DHT22;38941;53.254;6.600;2023-08-20T08:50:16;23.70;99.90
51837;DHT22;38941;53.254;6.600;2023-08-20T08:52:25;23.70;99.90
51837;DHT22;38941;53.254;6.600;2023-08-20T08:54:28;23.90;99.90
51837;DHT22;38941;53.254;6.600;2023-08-20T08:56:29;24.10;99.90
51837;DHT22;38941;53.254;6.600;2023-08-20T08:58:30;24.30;99.90
51837;DHT22;38941;53.254;6.600;2023-08-20T09:00:31;24.50;99.90
51837;DHT22;38941;53.254;6.600;2023-08-20T09:02:34;24.80;99.90
51837;DHT22;38941;53.254;6.600;2023-08-20T09:04:38;24.90;99.90
51837;DHT22;38941;53.254;6.600;2023-08-20T09:06:46;25.00;99.90
51837;DHT22;38941;53.254;6.600;2023-08-20T09:08:47;25.30;99.90
51837;DHT22;38941;53.254;6.600;2023-08-20T09:10:52;25.30;99.90
51837;DHT22;38941;53.254;6.600;2023-08-20T09:12:54;25.30;99.90
51837;DHT22;38941;53.254;6.600;2023-08-20T09:14:57;25.30;99.90
51837;DHT22;38941;53.254;6.600;2023-08-20T09:17:02;25.30;99.90
51837;DHT22;38941;53.254;6.600;2023-08-20T09:19:03;25.60;99.90
51837;DHT22;38941;53.254;6.600;2023-08-20T09:21:06;25.70;99.90
51837;DHT22;38941;53.254;6.600;2023-08-20T09:23:11;25.70;99.90
51837;DHT22;38941;53.254;6.600;2023-08-20T09:25:15;25.50;99.90
51837;DHT22;38941;53.254;6.600;2023-08-20T09:27:17;25.30;99.90
51837;DHT22;38941;53.254;6.600;2023-08-20T09:29:18;25.20;99.90
51837;DHT22;38941;53.254;6.600;2023-08-20T09:31:19;25.30;99.90
51837;DHT22;38941;53.254;6.600;2023-08-20T09:33:19;25.40;99.90
51837;DHT22;38941;53.254;6.600;2023-08-20T09:35:20;25.50;99.90
51837;DHT22;38941;53.254;6.600;2023-08-20T09:37:23;25.60;99.90
51837;DHT22;38941;53.254;6.600;2023-08-20T09:39:24;25.60;99.90
51837;DHT22;38941;53.254;6.600;2023-08-20T09:41:25;25.80;99.90
51837;DHT22;38941;53.254;6.600;2023-08-20T09:43:28;25.80;99.90
51837;DHT22;38941;53.254;6.600;2023-08-20T09:45:31;25.90;99.90
51837;DHT22;38941;53.254;6.600;2023-08-20T09:47:35;26.00;99.90
51837;DHT22;38941;53.254;6.600;2023-08-20T10:14:06;26.60;99.90
51837;DHT22;38941;53.254;6.600;2023-08-20T10:22:11;27.30;99.90
51837;DHT22;38941;53.254;6.600;2023-08-20T10:24:23;27.20;99.90
51837;DHT22;38941;53.254;6.600;2023-08-20T10:26:24;27.30;99.90
51837;DHT22;38941;53.254;6.600;2023-08-20T10:34:51;27.00;99.90
51837;DHT22;38941;53.254;6.600;2023-08-20T10:36:54;28.20;99.90
51837;DHT22;38941;53.254;6.600;2023-08-20T10:47:06;28.50;99.90
51837;DHT22;38941;53.254;6.600;2023-08-20T10:49:07;28.40;99.90
51837;DHT22;38941;53.254;6.600;2023-08-20T10:53:11;28.70;99.90
51837;DHT22;38941;53.254;6.600;2023-08-20T10:55:13;28.50;99.90
51837;DHT22;38941;53.254;6.600;2023-08-20T10:57:15;28.30;99.90
51837;DHT22;38941;53.254;6.600;2023-08-20T10:59:25;28.30;99.90
51837;DHT22;38941;53.254;6.600;2023-08-20T11:01:26;28.50;99.90
51837;DHT22;38941;53.254;6.600;2023-08-20T11:03:28;28.80;99.90
51837;DHT22;38941;53.254;6.600;2023-08-20T11:05:29;28.90;99.90
51837;DHT22;38941;53.254;6.600;2023-08-20T11:07:30;28.90;99.90
51837;DHT22;38941;53.254;6.600;2023-08-20T11:09:32;28.80;99.90
51837;DHT22;38941;53.254;6.600;2023-08-20T11:11:33;29.20;99.90
51837;DHT22;38941;53.254;6.600;2023-08-20T11:13:35;29.20;99.90
51837;DHT22;38941;53.254;6.600;2023-08-20T11:15:36;29.30;99.70
51837;DHT22;38941;53.254;6.600;2023-08-20T11:17:45;28.90;98.90
51837;DHT22;38941;53.254;6.600;2023-08-20T11:19:48;28.70;97.90
51837;DHT22;38941;53.254;6.600;2023-08-20T11:21:50;29.00;99.40
51837;DHT22;38941;53.254;6.600;2023-08-20T11:23:51;29.30;99.10
51837;DHT22;38941;53.254;6.600;2023-08-20T11:25:52;29.40;98.50
51837;DHT22;38941;53.254;6.600;2023-08-20T11:27:53;29.40;97.70
51837;DHT22;38941;53.254;6.600;2023-08-20T11:29:54;29.30;97.30
51837;DHT22;38941;53.254;6.600;2023-08-20T11:31:57;29.40;97.50
51837;DHT22;38941;53.254;6.600;2023-08-20T11:33:59;29.40;97.50
51837;DHT22;38941;53.254;6.600;2023-08-20T11:36:01;29.90;97.60
51837;DHT22;38941;53.254;6.600;2023-08-20T11:38:03;29.20;96.40
51837;DHT22;38941;53.254;6.600;2023-08-20T11:40:07;29.00;95.40
51837;DHT22;38941;53.254;6.600;2023-08-20T11:42:08;28.70;95.80
51837;DHT22;38941;53.254;6.600;2023-08-20T11:44:09;28.80;96.70
51837;DHT22;38941;53.254;6.600;2023-08-20T11:46:14;29.10;96.90
51837;DHT22;38941;53.254;6.600;2023-08-20T11:48:16;29.60;96.80
51837;DHT22;38941;53.254;6.600;2023-08-20T11:50:20;29.80;96.70
51837;DHT22;38941;53.254;6.600;2023-08-20T11:52:21;30.10;96.50
51837;DHT22;38941;53.254;6.600;2023-08-20T11:54:22;30.10;95.90
51837;DHT22;38941;53.254;6.600;2023-08-20T11:56:23;30.30;95.90
51837;DHT22;38941;53.254;6.600;2023-08-20T11:58:24;30.50;95.60
51837;DHT22;38941;53.254;6.600;2023-08-20T12:00:26;30.90;94.80
51837;DHT22;38941;53.254;6.600;2023-08-20T12:02:28;30.80;93.80
51837;DHT22;38941;53.254;6.600;2023-08-20T12:04:30;30.80;91.80
51837;DHT22;38941;53.254;6.600;2023-08-20T12:06:31;30.60;93.20
51837;DHT22;38941;53.254;6.600;2023-08-20T12:08:38;30.50;93.20
51837;DHT22;38941;53.254;6.600;2023-08-20T12:10:42;30.10;92.60
51837;DHT22;38941;53.254;6.600;2023-08-20T12:12:43;30.20;93.40
51837;DHT22;38941;53.254;6.600;2023-08-20T12:14:44;30.60;94.00
51837;DHT22;38941;53.254;6.600;2023-08-20T12:16:45;30.40;92.80
51837;DHT22;38941;53.254;6.600;2023-08-20T12:18:46;30.70;91.90
51837;DHT22;38941;53.254;6.600;2023-08-20T12:20:47;31.00;91.70
51837;DHT22;38941;53.254;6.600;2023-08-20T12:22:48;30.50;91.70
51837;DHT22;38941;53.254;6.600;2023-08-20T12:24:51;30.20;91.60
51837;DHT22;38941;53.254;6.600;2023-08-20T12:26:53;29.70;91.50
51837;DHT22;38941;53.254;6.600;2023-08-20T12:28:55;29.60;92.20
51837;DHT22;38941;53.254;6.600;2023-08-20T12:30:56;30.00;92.90
51837;DHT22;38941;53.254;6.600;2023-08-20T12:32:57;30.40;92.90
51837;DHT22;38941;53.254;6.600;2023-08-20T12:34:57;30.80;92.60
51837;DHT22;38941;53.254;6.600;2023-08-20T12:36:58;31.00;92.50
51837;DHT22;38941;53.254;6.600;2023-08-20T12:38:59;31.30;92.40
51837;DHT22;38941;53.254;6.600;2023-08-20T12:41:01;31.60;92.40
51837;DHT22;38941;53.254;6.600;2023-08-20T12:43:04;32.20;92.30
51837;DHT22;38941;53.254;6.600;2023-08-20T12:45:08;32.50;91.90
51837;DHT22;38941;53.254;6.600;2023-08-20T12:47:09;32.10;90.10
51837;DHT22;38941;53.254;6.600;2023-08-20T12:49:09;31.80;89.90
51837;DHT22;38941;53.254;6.600;2023-08-20T12:51:10;31.90;91.10
51837;DHT22;38941;53.254;6.600;2023-08-20T12:53:14;31.70;90.40
51837;DHT22;38941;53.254;6.600;2023-08-20T12:55:14;31.60;90.90
51837;DHT22;38941;53.254;6.600;2023-08-20T12:57:15;31.80;91.30
51837;DHT22;38941;53.254;6.600;2023-08-20T12:59:16;31.90;91.00
51837;DHT22;38941;53.254;6.600;2023-08-20T13:01:17;32.30;91.50
51837;DHT22;38941;53.254;6.600;2023-08-20T13:03:19;32.50;90.60
51837;DHT22;38941;53.254;6.600;2023-08-20T13:05:22;32.60;88.60
51837;DHT22;38941;53.254;6.600;2023-08-20T13:07:23;32.80;88.50
51837;DHT22;38941;53.254;6.600;2023-08-20T13:09:24;32.90;87.50
51837;DHT22;38941;53.254;6.600;2023-08-20T13:11:25;32.60;86.40
51837;DHT22;38941;53.254;6.600;2023-08-20T13:13:28;32.50;86.20
51837;DHT22;38941;53.254;6.600;2023-08-20T13:15:32;32.20;85.00
51837;DHT22;38941;53.254;6.600;2023-08-20T13:17:34;32.00;87.30
51837;DHT22;38941;53.254;6.600;2023-08-20T13:19:35;32.10;86.00
51837;DHT22;38941;53.254;6.600;2023-08-20T13:21:36;32.30;86.90
51837;DHT22;38941;53.254;6.600;2023-08-20T13:23:37;32.00;84.70
51837;DHT22;38941;53.254;6.600;2023-08-20T13:25:38;31.40;85.20
51837;DHT22;38941;53.254;6.600;2023-08-20T13:27:38;31.20;86.50
51837;DHT22;38941;53.254;6.600;2023-08-20T13:29:41;31.20;86.90
51837;DHT22;38941;53.254;6.600;2023-08-20T13:31:41;31.70;88.30
51837;DHT22;38941;53.254;6.600;2023-08-20T13:33:42;32.00;87.30
51837;DHT22;38941;53.254;6.600;2023-08-20T13:35:43;32.00;84.80
51837;DHT22;38941;53.254;6.600;2023-08-20T13:37:44;31.90;84.80
51837;DHT22;38941;53.254;6.600;2023-08-20T13:39:46;32.10;84.20
51837;DHT22;38941;53.254;6.600;2023-08-20T13:41:49;32.20;83.90